createdAt,value
2017-11-11T13:44:13.353Z,1003.6
2017-11-11T13:45:14.745Z,1003.6
2017-11-11T13:46:36.225Z,1003.5
2017-11-11T13:47:37.618Z,1003.6
2017-11-11T13:48:59.098Z,1003.6
2017-11-11T13:50:00.490Z,1003.6
2017-11-11T13:51:21.993Z,1003.6
2017-11-11T13:52:23.385Z,1003.6
2017-11-11T13:53:44.865Z,1003.6
2017-11-11T13:54:46.258Z,1003.6
2017-11-11T13:56:07.746Z,1003.6
2017-11-11T13:57:09.129Z,1003.6
2017-11-11T13:58:30.617Z,1003.6
2017-11-11T13:59:32.010Z,1003.6
2017-11-11T14:00:53.489Z,1003.7
2017-11-11T14:01:54.882Z,1003.7
2017-11-11T14:03:16.362Z,1003.7
2017-11-11T14:04:17.760Z,1003.7
2017-11-11T14:05:39.258Z,1003.7
2017-11-11T14:06:40.651Z,1003.7
2017-11-11T14:08:02.130Z,1003.7
2017-11-11T14:09:03.522Z,1003.7
2017-11-11T14:10:25.002Z,1003.6
2017-11-11T14:11:26.394Z,1003.6
2017-11-11T14:12:47.898Z,1003.6
2017-11-11T14:13:49.290Z,1003.6
2017-11-11T14:15:10.779Z,1003.6
2017-11-11T14:16:12.171Z,1003.7
2017-11-11T14:17:33.650Z,1003.6
2017-11-11T14:18:35.042Z,1003.6
2017-11-11T14:19:56.633Z,1003.7
2017-11-11T14:20:57.915Z,1003.7
2017-11-11T14:22:19.403Z,1003.7
2017-11-11T14:23:20.786Z,1003.7
2017-11-11T14:24:42.266Z,1003.7
2017-11-11T14:25:43.657Z,1003.7
2017-11-11T14:27:05.154Z,1003.7
2017-11-11T14:28:06.546Z,1003.7
2017-11-11T14:29:28.027Z,1003.7
2017-11-11T14:30:29.419Z,1003.7
2017-11-11T14:31:50.898Z,1003.7
2017-11-11T14:32:52.290Z,1003.7
2017-11-11T14:34:13.786Z,1003.7
2017-11-11T14:35:15.179Z,1003.8
2017-11-11T14:36:36.666Z,1003.8
2017-11-11T14:37:38.067Z,1003.8
2017-11-11T14:38:59.539Z,1003.9
2017-11-11T14:40:00.930Z,1003.9
2017-11-11T14:41:22.426Z,1003.9
2017-11-11T14:42:23.819Z,1003.9
2017-11-11T14:43:45.307Z,1003.9
2017-11-11T14:44:46.698Z,1003.9
2017-11-11T14:46:08.179Z,1003.9
2017-11-11T14:47:09.571Z,1003.8
2017-11-11T14:48:31.067Z,1003.9
2017-11-11T14:49:32.464Z,1003.9
2017-11-11T14:50:53.947Z,1003.8
2017-11-11T14:51:55.338Z,1003.9
2017-11-11T14:53:16.818Z,1003.9
2017-11-11T14:54:18.211Z,1003.9
2017-11-11T14:55:39.707Z,1003.9
2017-11-11T14:56:41.099Z,1003.9
2017-11-11T14:58:02.583Z,1004.0
2017-11-11T14:59:03.971Z,1003.9
2017-11-11T15:00:25.451Z,1003.9
2017-11-11T15:01:26.849Z,1003.9
2017-11-11T15:02:48.500Z,1003.9
2017-11-11T15:03:49.891Z,1003.9
2017-11-11T15:05:11.372Z,1003.9
2017-11-11T15:06:12.763Z,1003.9
2017-11-11T15:07:34.253Z,1003.9
2017-11-11T15:08:35.644Z,1003.9
2017-11-11T15:09:57.140Z,1003.9
2017-11-11T15:10:58.531Z,1004.0
2017-11-11T15:12:20.019Z,1003.9
2017-11-11T15:13:21.403Z,1004.0
2017-11-11T15:14:42.884Z,1003.9
2017-11-11T15:15:44.276Z,1003.9
2017-11-11T15:17:05.763Z,1003.9
2017-11-11T15:18:07.155Z,1003.9
2017-11-11T15:19:28.636Z,1003.9
2017-11-11T15:20:30.028Z,1003.9
2017-11-11T15:21:51.507Z,1003.9
2017-11-11T15:22:52.900Z,1003.9
2017-11-11T15:24:14.387Z,1003.8
2017-11-11T15:25:15.773Z,1003.9
2017-11-11T15:26:37.259Z,1003.9
2017-11-11T15:27:38.652Z,1003.8
2017-11-11T15:29:00.132Z,1003.9
2017-11-11T15:30:01.524Z,1003.9
2017-11-11T15:31:23.020Z,1003.9
2017-11-11T15:32:24.421Z,1003.9
2017-11-11T15:33:45.891Z,1004.0
2017-11-11T15:34:47.283Z,1004.0
2017-11-11T15:36:08.764Z,1004.0
2017-11-11T15:37:10.157Z,1004.0
2017-11-11T15:38:31.651Z,1004.0
2017-11-11T15:39:33.044Z,1004.0
2017-11-11T15:40:54.532Z,1004.0
2017-11-11T15:41:55.925Z,1004.0
2017-11-11T15:43:17.403Z,1004.0
2017-11-11T15:44:18.795Z,1004.0
2017-11-11T15:45:40.300Z,1004.0
2017-11-11T15:46:41.685Z,1004.0
2017-11-11T15:48:03.164Z,1004.0
2017-11-11T15:49:04.692Z,1004.0
2017-11-11T15:50:26.172Z,1004.0
2017-11-11T15:51:27.563Z,1004.0
2017-11-11T15:52:49.069Z,1004.0
2017-11-11T15:53:50.460Z,1004.0
2017-11-11T15:55:11.948Z,1004.0
2017-11-11T15:56:13.340Z,1004.0
2017-11-11T15:57:34.820Z,1003.9
2017-11-11T15:58:36.213Z,1003.9
2017-11-11T15:59:57.709Z,1003.9
2017-11-11T16:00:59.103Z,1004.0
2017-11-11T16:02:20.580Z,1004.0
2017-11-11T16:03:21.973Z,1004.0
2017-11-11T16:04:43.461Z,1004.0
2017-11-11T16:05:44.852Z,1004.0
2017-11-11T16:07:06.500Z,1004.0
2017-11-11T16:08:07.893Z,1004.0
2017-11-11T16:09:29.373Z,1004.1
2017-11-11T16:10:30.765Z,1004.1
2017-11-11T16:11:52.244Z,1004.1
2017-11-11T16:12:53.643Z,1004.1
2017-11-11T16:14:15.133Z,1004.1
2017-11-11T16:15:16.525Z,1004.1
2017-11-11T16:16:38.012Z,1004.1
2017-11-11T16:17:39.396Z,1004.1
2017-11-11T16:19:00.893Z,1004.1
2017-11-11T16:20:02.285Z,1004.1
2017-11-11T16:21:23.781Z,1004.2
2017-11-11T16:22:25.174Z,1004.2
2017-11-11T16:23:46.656Z,1004.3
2017-11-11T16:24:48.045Z,1004.3
2017-11-11T16:26:09.524Z,1004.4
2017-11-11T16:27:10.929Z,1004.4
2017-11-11T16:28:32.413Z,1004.4
2017-11-11T16:29:33.805Z,1004.4
2017-11-11T16:30:55.285Z,1004.4
2017-11-11T16:31:56.677Z,1004.4
2017-11-11T16:33:18.158Z,1004.4
2017-11-11T16:34:19.549Z,1004.4
2017-11-11T16:35:41.048Z,1004.4
2017-11-11T16:36:42.437Z,1004.4
2017-11-11T16:38:03.917Z,1004.4
2017-11-11T16:39:05.309Z,1004.5
2017-11-11T16:40:26.788Z,1004.4
2017-11-11T16:41:28.182Z,1004.4
2017-11-11T16:42:49.678Z,1004.4
2017-11-11T16:43:51.069Z,1004.4
2017-11-11T16:45:12.557Z,1004.4
2017-11-11T16:46:13.950Z,1004.5
2017-11-11T16:47:35.442Z,1004.5
2017-11-11T16:48:36.829Z,1004.5
2017-11-11T16:49:58.325Z,1004.5
2017-11-11T16:50:59.719Z,1004.6
2017-11-11T16:52:21.199Z,1004.5
2017-11-11T16:53:22.590Z,1004.5
2017-11-11T16:54:44.086Z,1004.4
2017-11-11T16:55:45.477Z,1004.5
2017-11-11T16:57:06.974Z,1004.5
2017-11-11T16:58:08.365Z,1004.5
2017-11-11T16:59:29.849Z,1004.4
2017-11-11T17:00:31.243Z,1004.5
2017-11-11T17:01:52.718Z,1004.5
2017-11-11T17:02:54.110Z,1004.5
2017-11-11T17:04:15.624Z,1004.5
2017-11-11T17:05:16.997Z,1004.6
2017-11-11T17:06:38.485Z,1004.6
2017-11-11T17:07:39.870Z,1004.6
2017-11-11T17:09:01.355Z,1004.7
2017-11-11T17:10:02.742Z,1004.7
2017-11-11T17:11:24.238Z,1004.7
2017-11-11T17:12:25.629Z,1004.7
2017-11-11T17:13:47.110Z,1004.8
2017-11-11T17:14:48.502Z,1004.7
2017-11-11T17:16:09.984Z,1004.8
2017-11-11T17:17:11.377Z,1004.8
2017-11-11T17:18:32.862Z,1004.7
2017-11-11T17:19:34.254Z,1004.7
2017-11-11T17:20:55.734Z,1004.7
2017-11-11T17:21:57.126Z,1004.7
2017-11-11T17:23:18.607Z,1004.8
2017-11-11T17:24:19.998Z,1004.8
2017-11-11T17:25:41.494Z,1004.8
2017-11-11T17:26:42.886Z,1004.8
2017-11-11T17:28:04.366Z,1004.8
2017-11-11T17:29:05.767Z,1004.7
2017-11-11T17:30:27.263Z,1004.8
2017-11-11T17:31:28.638Z,1004.8
2017-11-11T17:32:50.142Z,1004.8
2017-11-11T17:33:51.535Z,1004.8
2017-11-11T17:35:13.030Z,1004.8
2017-11-11T17:36:14.470Z,1004.8
2017-11-11T17:37:35.966Z,1004.8
2017-11-11T17:38:37.351Z,1004.8
2017-11-11T17:39:58.855Z,1004.7
2017-11-11T17:41:00.239Z,1004.7
2017-11-11T17:42:21.735Z,1004.7
2017-11-11T17:43:23.126Z,1004.7
2017-11-11T17:44:44.601Z,1004.7
2017-11-11T17:45:45.991Z,1004.7
2017-11-11T17:47:07.499Z,1004.7
2017-11-11T17:48:08.914Z,1004.7
2017-11-11T17:49:30.351Z,1004.7
2017-11-11T17:50:31.743Z,1004.7
2017-11-11T17:51:53.224Z,1004.8
2017-11-11T17:52:54.614Z,1004.8
2017-11-11T17:54:16.110Z,1004.8
2017-11-11T17:55:17.503Z,1004.8
2017-11-11T17:56:39.048Z,1004.8
2017-11-11T17:57:40.440Z,1004.8
2017-11-11T17:59:01.940Z,1004.8
2017-11-11T18:00:03.319Z,1004.8
2017-11-11T18:01:24.815Z,1004.7
2017-11-11T18:02:26.207Z,1004.9
2017-11-11T18:03:47.690Z,1004.9
2017-11-11T18:04:49.079Z,1004.9
2017-11-11T18:06:10.567Z,1004.8
2017-11-11T18:07:11.959Z,1004.8
2017-11-11T18:08:33.463Z,1004.8
2017-11-11T18:09:34.857Z,1004.8
2017-11-11T18:10:56.343Z,1004.9
2017-11-11T18:11:57.740Z,1004.9
2017-11-11T18:13:20.088Z,1004.9
2017-11-11T18:14:21.487Z,1004.9
2017-11-11T18:15:42.999Z,1004.9
2017-11-11T18:16:44.392Z,1005.0
2017-11-11T18:18:05.879Z,1005.0
2017-11-11T18:19:07.280Z,1005.0
2017-11-11T18:20:28.767Z,1005.0
2017-11-11T18:21:30.160Z,1005.1
2017-11-11T18:22:51.665Z,1005.1
2017-11-11T18:23:53.074Z,1005.1
2017-11-11T18:25:14.543Z,1005.1
2017-11-11T18:26:15.935Z,1005.1
2017-11-11T18:27:37.424Z,1005.2
2017-11-11T18:28:38.816Z,1005.2
2017-11-11T18:30:00.317Z,1005.1
2017-11-11T18:31:01.711Z,1005.2
2017-11-11T18:32:23.203Z,1005.2
2017-11-11T18:33:24.601Z,1005.2
2017-11-11T18:34:46.097Z,1005.2
2017-11-11T18:35:47.487Z,1005.2
2017-11-11T18:37:08.991Z,1005.3
2017-11-11T18:38:10.384Z,1005.3
2017-11-11T18:39:31.879Z,1005.3
2017-11-11T18:40:33.271Z,1005.3
2017-11-11T18:41:54.767Z,1005.3
2017-11-11T18:42:56.152Z,1005.4
2017-11-11T18:44:17.656Z,1005.4
2017-11-11T18:45:19.047Z,1005.4
2017-11-11T18:46:40.539Z,1005.4
2017-11-11T18:47:41.928Z,1005.4
2017-11-11T18:49:03.408Z,1005.4
2017-11-11T18:50:04.800Z,1005.4
2017-11-11T18:51:26.315Z,1005.4
2017-11-11T18:52:27.689Z,1005.4
2017-11-11T18:53:49.184Z,1005.5
2017-11-11T18:54:50.567Z,1005.5
2017-11-11T18:56:12.056Z,1005.5
2017-11-11T18:57:13.448Z,1005.5
2017-11-11T18:58:34.952Z,1005.5
2017-11-11T18:59:36.344Z,1005.5
2017-11-11T19:00:57.840Z,1005.5
2017-11-11T19:01:59.232Z,1005.5
2017-11-11T19:03:20.727Z,1005.5
2017-11-11T19:04:22.120Z,1005.5
2017-11-11T19:05:43.625Z,1005.5
2017-11-11T19:06:45.016Z,1005.5
2017-11-11T19:08:06.528Z,1005.6
2017-11-11T19:09:07.904Z,1005.6
2017-11-11T19:10:29.393Z,1005.6
2017-11-11T19:11:30.787Z,1005.6
2017-11-11T19:12:52.280Z,1005.6
2017-11-11T19:13:53.680Z,1005.6
2017-11-11T19:15:15.152Z,1005.6
2017-11-11T19:16:16.569Z,1005.6
2017-11-11T19:17:38.048Z,1005.6
2017-11-11T19:18:39.432Z,1005.7
2017-11-11T19:20:01.072Z,1005.6
2017-11-11T19:21:02.465Z,1005.6
2017-11-11T19:22:23.978Z,1005.7
2017-11-11T19:23:25.354Z,1005.7
2017-11-11T19:24:46.841Z,1005.7
2017-11-11T19:25:48.233Z,1005.7
2017-11-11T19:27:09.737Z,1005.7
2017-11-11T19:28:11.209Z,1005.8
2017-11-11T19:29:32.697Z,1005.8
2017-11-11T19:30:34.096Z,1005.8
2017-11-11T19:31:55.596Z,1005.8
2017-11-11T19:32:56.985Z,1005.8
2017-11-11T19:34:18.489Z,1005.8
2017-11-11T19:35:19.882Z,1005.8
2017-11-11T19:36:41.361Z,1005.8
2017-11-11T19:37:42.753Z,1005.9
2017-11-11T19:39:04.241Z,1005.9
2017-11-11T19:40:05.666Z,1005.9
2017-11-11T19:41:27.161Z,1005.9
2017-11-11T19:42:28.554Z,1005.9
2017-11-11T19:43:50.033Z,1005.9
2017-11-11T19:44:51.425Z,1005.9
2017-11-11T19:46:12.906Z,1005.9
2017-11-11T19:47:14.296Z,1005.9
2017-11-11T19:48:35.796Z,1005.9
2017-11-11T19:49:37.185Z,1005.9
2017-11-11T19:50:58.665Z,1006.0
2017-11-11T19:52:00.058Z,1005.9
2017-11-11T19:53:21.547Z,1005.9
2017-11-11T19:54:22.938Z,1005.9
2017-11-11T19:55:44.433Z,1005.9
2017-11-11T19:56:45.825Z,1005.9
2017-11-11T19:58:07.305Z,1005.9
2017-11-11T19:59:08.697Z,1005.9
2017-11-11T20:00:30.186Z,1005.9
2017-11-11T20:01:31.578Z,1005.8
2017-11-11T20:02:53.080Z,1005.9
2017-11-11T20:03:54.465Z,1005.9
2017-11-11T20:05:15.951Z,1005.9
2017-11-11T20:06:17.337Z,1005.9
2017-11-11T20:07:38.827Z,1005.9
2017-11-11T20:08:40.216Z,1005.9
2017-11-11T20:10:01.714Z,1005.9
2017-11-11T20:11:03.105Z,1005.9
2017-11-11T20:12:24.593Z,1005.9
2017-11-11T20:13:25.986Z,1005.9
2017-11-11T20:14:47.465Z,1005.9
2017-11-11T20:15:48.850Z,1005.9
2017-11-11T20:17:10.450Z,1005.9
2017-11-11T20:18:11.844Z,1006.0
2017-11-11T20:19:33.322Z,1005.9
2017-11-11T20:20:34.714Z,1005.9
2017-11-11T20:21:56.209Z,1006.0
2017-11-11T20:22:57.594Z,1005.9
2017-11-11T20:24:19.090Z,1005.9
2017-11-11T20:25:20.483Z,1006.0
2017-11-11T20:26:41.962Z,1005.9
2017-11-11T20:27:43.354Z,1006.0
2017-11-11T20:29:04.835Z,1006.0
2017-11-11T20:30:06.225Z,1006.0
2017-11-11T20:31:27.723Z,1006.0
2017-11-11T20:32:29.114Z,1006.0
2017-11-11T20:33:50.594Z,1006.0
2017-11-11T20:34:51.986Z,1006.0
2017-11-11T20:36:13.466Z,1006.0
2017-11-11T20:37:14.859Z,1006.1
2017-11-11T20:38:36.354Z,1006.1
2017-11-11T20:39:37.746Z,1006.1
2017-11-11T20:40:59.234Z,1006.1
2017-11-11T20:42:00.618Z,1006.1
2017-11-11T20:43:22.106Z,1006.1
2017-11-11T20:44:23.499Z,1006.1
2017-11-11T20:45:44.995Z,1006.1
2017-11-11T20:46:46.387Z,1006.1
2017-11-11T20:48:07.879Z,1006.2
2017-11-11T20:49:09.530Z,1006.1
2017-11-11T20:50:31.018Z,1006.2
2017-11-11T20:51:32.411Z,1006.2
2017-11-11T20:52:53.914Z,1006.2
2017-11-11T20:53:55.307Z,1006.2
2017-11-11T20:55:16.795Z,1006.2
2017-11-11T20:56:18.187Z,1006.2
2017-11-11T20:57:39.672Z,1006.2
2017-11-11T20:58:41.058Z,1006.2
2017-11-11T21:00:02.555Z,1006.2
2017-11-11T21:01:03.950Z,1006.2
2017-11-11T21:02:25.430Z,1006.3
2017-11-11T21:03:26.820Z,1006.2
2017-11-11T21:04:48.298Z,1006.2
2017-11-11T21:05:49.692Z,1006.3
2017-11-11T21:07:11.339Z,1006.3
2017-11-11T21:08:12.731Z,1006.3
2017-11-11T21:09:34.210Z,1006.3
2017-11-11T21:10:35.603Z,1006.3
2017-11-11T21:11:57.094Z,1006.3
2017-11-11T21:12:58.483Z,1006.3
2017-11-11T21:14:19.989Z,1006.3
2017-11-11T21:15:21.379Z,1006.3
2017-11-11T21:16:42.867Z,1006.3
2017-11-11T21:17:44.250Z,1006.3
2017-11-11T21:19:05.731Z,1006.3
2017-11-11T21:20:07.127Z,1006.3
2017-11-11T21:21:28.620Z,1006.3
2017-11-11T21:22:30.012Z,1006.3
2017-11-11T21:23:51.491Z,1006.3
2017-11-11T21:24:52.885Z,1006.3
2017-11-11T21:26:14.363Z,1006.4
2017-11-11T21:27:15.756Z,1006.3
2017-11-11T21:28:37.259Z,1006.3
2017-11-11T21:29:38.636Z,1006.4
2017-11-11T21:31:00.132Z,1006.4
2017-11-11T21:32:01.523Z,1006.3
2017-11-11T21:33:23.003Z,1006.4
2017-11-11T21:34:24.400Z,1006.4
2017-11-11T21:35:45.899Z,1006.4
2017-11-11T21:36:47.291Z,1006.4
2017-11-11T21:38:08.772Z,1006.4
2017-11-11T21:39:10.165Z,1006.3
2017-11-11T21:40:31.644Z,1006.3
2017-11-11T21:41:33.035Z,1006.4
2017-11-11T21:42:54.532Z,1006.4
2017-11-11T21:43:55.924Z,1006.4
2017-11-11T21:45:17.411Z,1006.4
2017-11-11T21:46:18.795Z,1006.4
2017-11-11T21:47:40.275Z,1006.4
2017-11-11T21:48:41.668Z,1006.4
2017-11-11T21:50:03.164Z,1006.4
2017-11-11T21:51:04.555Z,1006.4
2017-11-11T21:52:26.037Z,1006.4
2017-11-11T21:53:27.427Z,1006.4
2017-11-11T21:54:48.909Z,1006.4
2017-11-11T21:55:50.300Z,1006.4
2017-11-11T21:57:11.796Z,1006.4
2017-11-11T21:58:13.188Z,1006.4
2017-11-11T21:59:34.668Z,1006.4
2017-11-11T22:00:36.060Z,1006.4
2017-11-11T22:01:57.541Z,1006.3
2017-11-11T22:02:58.932Z,1006.3
2017-11-11T22:04:20.428Z,1006.3
2017-11-11T22:05:21.822Z,1006.3
2017-11-11T22:06:43.300Z,1006.4
2017-11-11T22:07:44.694Z,1006.3
2017-11-11T22:09:06.191Z,1006.3
2017-11-11T22:10:07.570Z,1006.4
2017-11-11T22:11:29.061Z,1006.3
2017-11-11T22:12:30.452Z,1006.4
2017-11-11T22:13:51.941Z,1006.4
2017-11-11T22:14:53.332Z,1006.4
2017-11-11T22:16:14.812Z,1006.4
2017-11-11T22:17:16.205Z,1006.4
2017-11-11T22:18:37.981Z,1006.4
2017-11-11T22:19:39.396Z,1006.4
2017-11-11T22:21:00.884Z,1006.4
2017-11-11T22:22:02.276Z,1006.4
2017-11-11T22:23:23.757Z,1006.4
2017-11-11T22:24:25.148Z,1006.4
2017-11-11T22:25:46.644Z,1006.4
2017-11-11T22:26:48.037Z,1006.4
2017-11-11T22:28:09.524Z,1006.4
2017-11-11T22:29:10.917Z,1006.4
2017-11-11T22:30:32.397Z,1006.4
2017-11-11T22:31:33.789Z,1006.4
2017-11-11T22:32:55.380Z,1006.3
2017-11-11T22:33:56.773Z,1006.4
2017-11-11T22:35:18.252Z,1006.4
2017-11-11T22:36:19.644Z,1006.4
2017-11-11T22:37:41.125Z,1006.4
2017-11-11T22:38:42.661Z,1006.4
2017-11-11T22:40:04.157Z,1006.4
2017-11-11T22:41:05.549Z,1006.4
2017-11-11T22:42:27.029Z,1006.3
2017-11-11T22:43:28.421Z,1006.4
2017-11-11T22:44:49.901Z,1006.3
2017-11-11T22:45:51.293Z,1006.4
2017-11-11T22:47:12.789Z,1006.4
2017-11-11T22:48:14.182Z,1006.3
2017-11-11T22:49:35.660Z,1006.4
2017-11-11T22:50:37.053Z,1006.4
2017-11-11T22:51:58.533Z,1006.4
2017-11-11T22:52:59.925Z,1006.4
2017-11-11T22:54:21.426Z,1006.3
2017-11-11T22:55:22.814Z,1006.4
2017-11-11T22:56:44.306Z,1006.3
2017-11-11T22:57:45.692Z,1006.3
2017-11-11T22:59:07.174Z,1006.3
2017-11-11T23:00:08.568Z,1006.3
2017-11-11T23:01:30.069Z,1006.3
2017-11-11T23:02:31.461Z,1006.2
2017-11-11T23:03:52.942Z,1006.2
2017-11-11T23:04:54.334Z,1006.3
2017-11-11T23:06:15.827Z,1006.2
2017-11-11T23:07:17.213Z,1006.2
2017-11-11T23:08:38.701Z,1006.2
2017-11-11T23:09:40.093Z,1006.2
2017-11-11T23:11:01.574Z,1006.2
2017-11-11T23:12:02.974Z,1006.2
2017-11-11T23:13:24.453Z,1006.2
2017-11-11T23:14:25.846Z,1006.1
2017-11-11T23:15:47.342Z,1006.2
2017-11-11T23:16:48.734Z,1006.2
2017-11-11T23:18:10.214Z,1006.2
2017-11-11T23:19:11.607Z,1006.2
2017-11-11T23:20:33.086Z,1006.2
2017-11-11T23:21:34.478Z,1006.2
2017-11-11T23:22:55.980Z,1006.3
2017-11-11T23:23:57.367Z,1006.3
2017-11-11T23:25:18.846Z,1006.3
2017-11-11T23:26:20.238Z,1006.3
2017-11-11T23:27:41.718Z,1006.3
2017-11-11T23:28:43.115Z,1006.2
2017-11-11T23:30:04.607Z,1006.2
2017-11-11T23:31:05.999Z,1006.2
2017-11-11T23:32:27.479Z,1006.2
2017-11-11T23:33:28.870Z,1006.2
2017-11-11T23:34:50.359Z,1006.2
2017-11-11T23:35:51.750Z,1006.2
2017-11-11T23:37:13.246Z,1006.2
2017-11-11T23:38:14.638Z,1006.2
2017-11-11T23:39:36.126Z,1006.3
2017-11-11T23:40:37.518Z,1006.2
2017-11-11T23:41:58.998Z,1006.2
2017-11-11T23:43:00.390Z,1006.2
2017-11-11T23:44:21.886Z,1006.2
2017-11-11T23:45:23.278Z,1006.2
2017-11-11T23:46:44.759Z,1006.2
2017-11-11T23:47:46.151Z,1006.1
2017-11-11T23:49:07.641Z,1006.2
2017-11-11T23:50:09.030Z,1006.1
2017-11-11T23:51:30.526Z,1006.1
2017-11-11T23:52:31.919Z,1006.2
2017-11-11T23:53:53.398Z,1006.1
2017-11-11T23:54:54.790Z,1006.2
2017-11-11T23:56:16.278Z,1006.1
2017-11-11T23:57:17.671Z,1006.1
2017-11-11T23:58:39.171Z,1006.1
2017-11-11T23:59:40.559Z,1006.0
